sensor_id;sensor_type;location;lat;lon;timestamp;P1;durP1;ratioP1;P2;durP2;ratioP2
5995;SDS011;3026;53.612;7.278;2023-02-15T00:00:53;20.97;;;14.67;;
5995;SDS011;3026;53.612;7.278;2023-02-15T00:03:20;23.03;;;14.03;;
5995;SDS011;3026;53.612;7.278;2023-02-15T00:05:49;19.07;;;13.87;;
5995;SDS011;3026;53.612;7.278;2023-02-15T00:08:16;22.97;;;14.53;;
5995;SDS011;3026;53.612;7.278;2023-02-15T00:10:43;21.57;;;15.00;;
5995;SDS011;3026;53.612;7.278;2023-02-15T00:13:10;21.23;;;14.73;;
5995;SDS011;3026;53.612;7.278;2023-02-15T00:15:37;20.23;;;14.30;;
5995;SDS011;3026;53.612;7.278;2023-02-15T00:18:04;21.23;;;14.80;;
5995;SDS011;3026;53.612;7.278;2023-02-15T00:20:32;21.60;;;14.03;;
5995;SDS011;3026;53.612;7.278;2023-02-15T00:23:01;22.40;;;15.73;;
5995;SDS011;3026;53.612;7.278;2023-02-15T00:25:27;21.17;;;14.10;;
5995;SDS011;3026;53.612;7.278;2023-02-15T00:27:54;21.13;;;14.90;;
5995;SDS011;3026;53.612;7.278;2023-02-15T00:30:21;20.90;;;14.47;;
5995;SDS011;3026;53.612;7.278;2023-02-15T00:32:48;23.73;;;15.90;;
5995;SDS011;3026;53.612;7.278;2023-02-15T00:35:15;21.03;;;14.40;;
5995;SDS011;3026;53.612;7.278;2023-02-15T00:37:42;20.60;;;14.57;;
5995;SDS011;3026;53.612;7.278;2023-02-15T00:40:11;19.90;;;15.30;;
5995;SDS011;3026;53.612;7.278;2023-02-15T00:42:38;22.93;;;15.47;;
5995;SDS011;3026;53.612;7.278;2023-02-15T00:45:05;25.23;;;15.67;;
5995;SDS011;3026;53.612;7.278;2023-02-15T00:47:34;24.23;;;16.07;;
5995;SDS011;3026;53.612;7.278;2023-02-15T00:50:00;28.43;;;16.53;;
5995;SDS011;3026;53.612;7.278;2023-02-15T00:52:28;26.10;;;16.67;;
5995;SDS011;3026;53.612;7.278;2023-02-15T00:54:55;25.47;;;16.47;;
5995;SDS011;3026;53.612;7.278;2023-02-15T00:57:23;31.37;;;16.60;;
5995;SDS011;3026;53.612;7.278;2023-02-15T00:59:50;26.83;;;17.73;;
5995;SDS011;3026;53.612;7.278;2023-02-15T01:02:17;24.23;;;16.20;;
5995;SDS011;3026;53.612;7.278;2023-02-15T01:04:44;25.97;;;16.07;;
5995;SDS011;3026;53.612;7.278;2023-02-15T01:07:11;22.60;;;15.80;;
5995;SDS011;3026;53.612;7.278;2023-02-15T01:09:38;23.43;;;15.87;;
5995;SDS011;3026;53.612;7.278;2023-02-15T01:12:05;20.60;;;14.47;;
5995;SDS011;3026;53.612;7.278;2023-02-15T01:14:33;21.50;;;14.50;;
5995;SDS011;3026;53.612;7.278;2023-02-15T01:17:00;20.63;;;14.33;;
5995;SDS011;3026;53.612;7.278;2023-02-15T01:19:28;20.17;;;13.50;;
5995;SDS011;3026;53.612;7.278;2023-02-15T01:21:55;21.57;;;14.43;;
5995;SDS011;3026;53.612;7.278;2023-02-15T01:24:28;21.50;;;15.03;;
5995;SDS011;3026;53.612;7.278;2023-02-15T01:26:57;21.20;;;14.43;;
5995;SDS011;3026;53.612;7.278;2023-02-15T01:29:30;18.43;;;13.20;;
5995;SDS011;3026;53.612;7.278;2023-02-15T01:32:02;18.43;;;13.03;;
5995;SDS011;3026;53.612;7.278;2023-02-15T01:34:31;19.10;;;14.30;;
5995;SDS011;3026;53.612;7.278;2023-02-15T01:37:03;15.40;;;12.60;;
5995;SDS011;3026;53.612;7.278;2023-02-15T01:39:30;18.17;;;12.23;;
5995;SDS011;3026;53.612;7.278;2023-02-15T01:41:58;15.67;;;12.47;;
5995;SDS011;3026;53.612;7.278;2023-02-15T01:47:17;17.03;;;12.43;;
5995;SDS011;3026;53.612;7.278;2023-02-15T01:49:49;15.33;;;11.43;;
5995;SDS011;3026;53.612;7.278;2023-02-15T01:52:24;16.03;;;12.47;;
5995;SDS011;3026;53.612;7.278;2023-02-15T01:54:51;16.03;;;12.63;;
5995;SDS011;3026;53.612;7.278;2023-02-15T01:57:19;24.43;;;13.20;;
5995;SDS011;3026;53.612;7.278;2023-02-15T01:59:52;16.83;;;11.97;;
5995;SDS011;3026;53.612;7.278;2023-02-15T02:02:24;15.50;;;11.50;;
5995;SDS011;3026;53.612;7.278;2023-02-15T02:04:52;17.47;;;12.13;;
5995;SDS011;3026;53.612;7.278;2023-02-15T02:07:21;16.10;;;12.10;;
5995;SDS011;3026;53.612;7.278;2023-02-15T02:09:50;14.73;;;11.80;;
5995;SDS011;3026;53.612;7.278;2023-02-15T02:12:17;16.80;;;12.57;;
5995;SDS011;3026;53.612;7.278;2023-02-15T02:14:47;15.93;;;10.40;;
5995;SDS011;3026;53.612;7.278;2023-02-15T02:17:16;11.83;;;10.17;;
5995;SDS011;3026;53.612;7.278;2023-02-15T02:20:05;14.30;;;10.37;;
5995;SDS011;3026;53.612;7.278;2023-02-15T02:25:53;13.03;;;10.23;;
5995;SDS011;3026;53.612;7.278;2023-02-15T02:31:58;12.20;;;9.77;;
5995;SDS011;3026;53.612;7.278;2023-02-15T02:34:55;13.80;;;10.43;;
5995;SDS011;3026;53.612;7.278;2023-02-15T02:37:28;9.83;;;8.63;;
5995;SDS011;3026;53.612;7.278;2023-02-15T02:40:03;12.07;;;10.10;;
5995;SDS011;3026;53.612;7.278;2023-02-15T02:42:38;12.53;;;9.67;;
5995;SDS011;3026;53.612;7.278;2023-02-15T02:45:08;11.63;;;10.43;;
5995;SDS011;3026;53.612;7.278;2023-02-15T02:47:39;11.53;;;9.40;;
5995;SDS011;3026;53.612;7.278;2023-02-15T02:50:13;12.13;;;9.87;;
5995;SDS011;3026;53.612;7.278;2023-02-15T02:52:42;11.03;;;9.03;;
5995;SDS011;3026;53.612;7.278;2023-02-15T02:55:11;21.47;;;10.33;;
5995;SDS011;3026;53.612;7.278;2023-02-15T02:57:43;36.73;;;11.30;;
5995;SDS011;3026;53.612;7.278;2023-02-15T03:00:18;12.13;;;9.13;;
5995;SDS011;3026;53.612;7.278;2023-02-15T03:02:47;12.17;;;10.10;;
5995;SDS011;3026;53.612;7.278;2023-02-15T03:05:20;13.43;;;9.57;;
5995;SDS011;3026;53.612;7.278;2023-02-15T03:07:52;10.07;;;8.53;;
5995;SDS011;3026;53.612;7.278;2023-02-15T03:10:22;12.70;;;10.40;;
5995;SDS011;3026;53.612;7.278;2023-02-15T03:12:50;13.17;;;9.97;;
5995;SDS011;3026;53.612;7.278;2023-02-15T03:15:19;13.20;;;9.80;;
5995;SDS011;3026;53.612;7.278;2023-02-15T03:17:48;13.03;;;9.87;;
5995;SDS011;3026;53.612;7.278;2023-02-15T03:20:22;11.20;;;9.07;;
5995;SDS011;3026;53.612;7.278;2023-02-15T03:22:53;10.67;;;8.90;;
5995;SDS011;3026;53.612;7.278;2023-02-15T03:25:25;14.30;;;8.70;;
5995;SDS011;3026;53.612;7.278;2023-02-15T03:27:58;10.03;;;8.57;;
5995;SDS011;3026;53.612;7.278;2023-02-15T03:30:29;9.70;;;8.70;;
5995;SDS011;3026;53.612;7.278;2023-02-15T03:32:59;13.83;;;8.87;;
5995;SDS011;3026;53.612;7.278;2023-02-15T03:35:30;8.73;;;7.70;;
5995;SDS011;3026;53.612;7.278;2023-02-15T03:38:03;33.13;;;9.20;;
5995;SDS011;3026;53.612;7.278;2023-02-15T03:40:34;27.30;;;10.17;;
5995;SDS011;3026;53.612;7.278;2023-02-15T03:43:19;23.83;;;9.03;;
5995;SDS011;3026;53.612;7.278;2023-02-15T03:45:51;41.70;;;10.33;;
5995;SDS011;3026;53.612;7.278;2023-02-15T03:48:24;47.43;;;11.67;;
5995;SDS011;3026;53.612;7.278;2023-02-15T03:50:55;23.43;;;9.30;;
5995;SDS011;3026;53.612;7.278;2023-02-15T03:53:44;33.13;;;10.23;;
5995;SDS011;3026;53.612;7.278;2023-02-15T03:56:13;64.03;;;12.93;;
5995;SDS011;3026;53.612;7.278;2023-02-15T03:58:45;36.50;;;10.90;;
5995;SDS011;3026;53.612;7.278;2023-02-15T04:01:34;38.40;;;10.20;;
5995;SDS011;3026;53.612;7.278;2023-02-15T04:04:25;33.53;;;11.03;;
5995;SDS011;3026;53.612;7.278;2023-02-15T04:06:59;37.43;;;10.43;;
5995;SDS011;3026;53.612;7.278;2023-02-15T04:09:32;26.90;;;10.63;;
5995;SDS011;3026;53.612;7.278;2023-02-15T04:12:18;23.40;;;10.30;;
5995;SDS011;3026;53.612;7.278;2023-02-15T04:14:45;24.47;;;10.97;;
5995;SDS011;3026;53.612;7.278;2023-02-15T04:17:29;44.90;;;11.30;;
5995;SDS011;3026;53.612;7.278;2023-02-15T04:19:56;14.73;;;10.27;;
5995;SDS011;3026;53.612;7.278;2023-02-15T04:22:41;12.30;;;9.63;;
5995;SDS011;3026;53.612;7.278;2023-02-15T04:25:26;23.23;;;11.57;;
5995;SDS011;3026;53.612;7.278;2023-02-15T04:27:53;13.23;;;9.77;;
5995;SDS011;3026;53.612;7.278;2023-02-15T04:30:22;38.37;;;11.97;;
5995;SDS011;3026;53.612;7.278;2023-02-15T04:32:52;12.10;;;9.83;;
5995;SDS011;3026;53.612;7.278;2023-02-15T04:35:20;14.00;;;9.67;;
5995;SDS011;3026;53.612;7.278;2023-02-15T04:37:49;19.93;;;10.60;;
5995;SDS011;3026;53.612;7.278;2023-02-15T04:40:16;32.37;;;11.40;;
5995;SDS011;3026;53.612;7.278;2023-02-15T04:42:46;17.00;;;10.53;;
5995;SDS011;3026;53.612;7.278;2023-02-15T04:45:13;13.67;;;11.40;;
5995;SDS011;3026;53.612;7.278;2023-02-15T04:47:41;16.87;;;11.97;;
5995;SDS011;3026;53.612;7.278;2023-02-15T04:50:08;15.73;;;11.47;;
5995;SDS011;3026;53.612;7.278;2023-02-15T04:52:35;16.60;;;11.60;;
5995;SDS011;3026;53.612;7.278;2023-02-15T04:55:04;16.67;;;12.47;;
5995;SDS011;3026;53.612;7.278;2023-02-15T04:57:32;18.73;;;11.93;;
5995;SDS011;3026;53.612;7.278;2023-02-15T05:00:00;17.03;;;11.73;;
5995;SDS011;3026;53.612;7.278;2023-02-15T05:02:27;16.13;;;12.37;;
5995;SDS011;3026;53.612;7.278;2023-02-15T05:04:54;15.20;;;11.17;;
5995;SDS011;3026;53.612;7.278;2023-02-15T05:07:21;16.17;;;12.13;;
5995;SDS011;3026;53.612;7.278;2023-02-15T05:09:49;20.83;;;14.07;;
5995;SDS011;3026;53.612;7.278;2023-02-15T05:12:17;17.03;;;13.23;;
5995;SDS011;3026;53.612;7.278;2023-02-15T05:14:45;18.40;;;13.37;;
5995;SDS011;3026;53.612;7.278;2023-02-15T05:17:12;16.50;;;12.23;;
5995;SDS011;3026;53.612;7.278;2023-02-15T05:19:38;15.40;;;12.93;;
5995;SDS011;3026;53.612;7.278;2023-02-15T05:22:05;21.00;;;12.73;;
5995;SDS011;3026;53.612;7.278;2023-02-15T05:24:32;45.27;;;14.73;;
5995;SDS011;3026;53.612;7.278;2023-02-15T05:27:18;25.53;;;12.93;;
5995;SDS011;3026;53.612;7.278;2023-02-15T05:30:02;18.40;;;12.50;;
5995;SDS011;3026;53.612;7.278;2023-02-15T05:32:30;17.17;;;12.20;;
5995;SDS011;3026;53.612;7.278;2023-02-15T05:34:58;33.47;;;14.30;;
5995;SDS011;3026;53.612;7.278;2023-02-15T05:37:25;24.90;;;13.13;;
5995;SDS011;3026;53.612;7.278;2023-02-15T05:39:52;21.93;;;13.50;;
5995;SDS011;3026;53.612;7.278;2023-02-15T05:42:20;28.30;;;12.63;;
5995;SDS011;3026;53.612;7.278;2023-02-15T05:44:48;40.73;;;13.80;;
5995;SDS011;3026;53.612;7.278;2023-02-15T05:47:15;24.90;;;12.53;;
5995;SDS011;3026;53.612;7.278;2023-02-15T05:49:42;23.40;;;12.77;;
5995;SDS011;3026;53.612;7.278;2023-02-15T05:52:09;20.07;;;13.97;;
5995;SDS011;3026;53.612;7.278;2023-02-15T05:54:37;18.37;;;12.27;;
5995;SDS011;3026;53.612;7.278;2023-02-15T05:57:04;17.10;;;12.60;;
5995;SDS011;3026;53.612;7.278;2023-02-15T05:59:32;16.93;;;12.70;;
5995;SDS011;3026;53.612;7.278;2023-02-15T06:01:59;19.50;;;12.63;;
5995;SDS011;3026;53.612;7.278;2023-02-15T06:04:26;22.13;;;14.47;;
5995;SDS011;3026;53.612;7.278;2023-02-15T06:06:53;19.13;;;13.70;;
5995;SDS011;3026;53.612;7.278;2023-02-15T06:09:20;19.10;;;12.97;;
5995;SDS011;3026;53.612;7.278;2023-02-15T06:11:47;20.13;;;13.37;;
5995;SDS011;3026;53.612;7.278;2023-02-15T06:14:14;18.13;;;12.63;;
5995;SDS011;3026;53.612;7.278;2023-02-15T06:16:42;16.40;;;12.57;;
5995;SDS011;3026;53.612;7.278;2023-02-15T06:19:10;16.57;;;12.60;;
5995;SDS011;3026;53.612;7.278;2023-02-15T06:21:37;18.37;;;12.67;;
5995;SDS011;3026;53.612;7.278;2023-02-15T06:24:04;18.70;;;12.57;;
5995;SDS011;3026;53.612;7.278;2023-02-15T06:26:32;18.47;;;12.67;;
5995;SDS011;3026;53.612;7.278;2023-02-15T06:28:59;16.63;;;12.83;;
5995;SDS011;3026;53.612;7.278;2023-02-15T06:31:26;17.03;;;13.13;;
5995;SDS011;3026;53.612;7.278;2023-02-15T06:33:54;17.67;;;13.30;;
5995;SDS011;3026;53.612;7.278;2023-02-15T06:36:28;18.17;;;12.73;;
5995;SDS011;3026;53.612;7.278;2023-02-15T06:38:57;20.47;;;13.93;;
5995;SDS011;3026;53.612;7.278;2023-02-15T06:41:24;22.73;;;14.07;;
5995;SDS011;3026;53.612;7.278;2023-02-15T06:43:51;19.63;;;13.73;;
5995;SDS011;3026;53.612;7.278;2023-02-15T06:46:18;23.87;;;14.33;;
5995;SDS011;3026;53.612;7.278;2023-02-15T06:48:45;31.60;;;14.80;;
5995;SDS011;3026;53.612;7.278;2023-02-15T06:51:13;24.90;;;15.33;;
5995;SDS011;3026;53.612;7.278;2023-02-15T06:53:40;21.23;;;15.60;;
5995;SDS011;3026;53.612;7.278;2023-02-15T06:56:08;28.90;;;15.97;;
5995;SDS011;3026;53.612;7.278;2023-02-15T06:58:36;29.80;;;15.87;;
5995;SDS011;3026;53.612;7.278;2023-02-15T07:01:04;28.23;;;16.00;;
5995;SDS011;3026;53.612;7.278;2023-02-15T07:03:32;27.83;;;15.67;;
5995;SDS011;3026;53.612;7.278;2023-02-15T07:06:00;34.30;;;15.50;;
5995;SDS011;3026;53.612;7.278;2023-02-15T07:08:32;33.70;;;16.23;;
5995;SDS011;3026;53.612;7.278;2023-02-15T07:11:00;23.80;;;15.53;;
5995;SDS011;3026;53.612;7.278;2023-02-15T07:13:41;26.97;;;15.77;;
5995;SDS011;3026;53.612;7.278;2023-02-15T07:16:09;24.67;;;15.97;;
5995;SDS011;3026;53.612;7.278;2023-02-15T07:18:36;23.30;;;14.73;;
5995;SDS011;3026;53.612;7.278;2023-02-15T07:21:04;29.17;;;16.57;;
5995;SDS011;3026;53.612;7.278;2023-02-15T07:23:35;24.77;;;15.87;;
5995;SDS011;3026;53.612;7.278;2023-02-15T07:26:03;30.90;;;17.03;;
5995;SDS011;3026;53.612;7.278;2023-02-15T07:28:31;39.33;;;16.33;;
5995;SDS011;3026;53.612;7.278;2023-02-15T07:30:58;29.43;;;17.07;;
5995;SDS011;3026;53.612;7.278;2023-02-15T07:33:27;27.53;;;16.33;;
5995;SDS011;3026;53.612;7.278;2023-02-15T07:35:55;23.40;;;15.67;;
5995;SDS011;3026;53.612;7.278;2023-02-15T07:38:24;26.87;;;16.87;;
5995;SDS011;3026;53.612;7.278;2023-02-15T07:40:58;28.77;;;18.10;;
5995;SDS011;3026;53.612;7.278;2023-02-15T07:43:26;27.47;;;17.80;;
5995;SDS011;3026;53.612;7.278;2023-02-15T07:45:53;26.83;;;16.50;;
5995;SDS011;3026;53.612;7.278;2023-02-15T07:48:20;30.00;;;18.63;;
5995;SDS011;3026;53.612;7.278;2023-02-15T07:50:48;27.87;;;17.93;;
5995;SDS011;3026;53.612;7.278;2023-02-15T07:53:15;28.00;;;17.30;;
5995;SDS011;3026;53.612;7.278;2023-02-15T07:55:41;29.33;;;17.97;;
5995;SDS011;3026;53.612;7.278;2023-02-15T07:58:10;26.87;;;17.27;;
5995;SDS011;3026;53.612;7.278;2023-02-15T08:00:37;25.47;;;17.73;;
5995;SDS011;3026;53.612;7.278;2023-02-15T08:03:18;26.07;;;16.23;;
5995;SDS011;3026;53.612;7.278;2023-02-15T08:05:45;27.53;;;17.23;;
5995;SDS011;3026;53.612;7.278;2023-02-15T08:08:12;27.07;;;19.00;;
5995;SDS011;3026;53.612;7.278;2023-02-15T08:10:57;28.60;;;18.67;;
5995;SDS011;3026;53.612;7.278;2023-02-15T08:13:43;30.00;;;18.47;;
5995;SDS011;3026;53.612;7.278;2023-02-15T08:16:21;33.30;;;20.87;;
5995;SDS011;3026;53.612;7.278;2023-02-15T08:18:50;33.37;;;20.47;;
5995;SDS011;3026;53.612;7.278;2023-02-15T08:21:18;33.23;;;22.40;;
5995;SDS011;3026;53.612;7.278;2023-02-15T08:23:45;33.27;;;21.00;;
5995;SDS011;3026;53.612;7.278;2023-02-15T08:26:12;32.87;;;20.47;;
5995;SDS011;3026;53.612;7.278;2023-02-15T08:28:40;32.97;;;21.23;;
5995;SDS011;3026;53.612;7.278;2023-02-15T08:31:10;33.40;;;20.37;;
5995;SDS011;3026;53.612;7.278;2023-02-15T08:33:38;30.10;;;19.47;;
5995;SDS011;3026;53.612;7.278;2023-02-15T08:36:07;29.50;;;20.47;;
5995;SDS011;3026;53.612;7.278;2023-02-15T08:38:36;33.47;;;20.97;;
5995;SDS011;3026;53.612;7.278;2023-02-15T08:41:11;34.40;;;20.50;;
5995;SDS011;3026;53.612;7.278;2023-02-15T08:43:39;32.80;;;22.37;;
5995;SDS011;3026;53.612;7.278;2023-02-15T08:46:07;32.20;;;21.73;;
5995;SDS011;3026;53.612;7.278;2023-02-15T08:48:36;33.57;;;21.97;;
5995;SDS011;3026;53.612;7.278;2023-02-15T08:51:04;35.77;;;22.47;;
5995;SDS011;3026;53.612;7.278;2023-02-15T08:53:33;33.20;;;23.50;;
5995;SDS011;3026;53.612;7.278;2023-02-15T08:56:00;34.53;;;23.60;;
5995;SDS011;3026;53.612;7.278;2023-02-15T08:58:28;34.30;;;22.83;;
5995;SDS011;3026;53.612;7.278;2023-02-15T09:00:55;36.37;;;23.83;;
5995;SDS011;3026;53.612;7.278;2023-02-15T09:03:23;36.77;;;24.07;;
5995;SDS011;3026;53.612;7.278;2023-02-15T09:05:53;38.63;;;24.27;;
5995;SDS011;3026;53.612;7.278;2023-02-15T09:08:24;35.17;;;23.57;;
5995;SDS011;3026;53.612;7.278;2023-02-15T09:10:51;40.30;;;26.87;;
5995;SDS011;3026;53.612;7.278;2023-02-15T09:13:18;40.40;;;26.13;;
5995;SDS011;3026;53.612;7.278;2023-02-15T09:15:45;45.07;;;26.53;;
5995;SDS011;3026;53.612;7.278;2023-02-15T09:18:12;41.63;;;27.30;;
5995;SDS011;3026;53.612;7.278;2023-02-15T09:20:42;38.20;;;25.17;;
5995;SDS011;3026;53.612;7.278;2023-02-15T09:23:11;42.03;;;27.33;;
5995;SDS011;3026;53.612;7.278;2023-02-15T09:25:41;39.83;;;27.30;;
5995;SDS011;3026;53.612;7.278;2023-02-15T09:28:08;37.33;;;24.63;;
5995;SDS011;3026;53.612;7.278;2023-02-15T09:30:35;37.07;;;24.43;;
5995;SDS011;3026;53.612;7.278;2023-02-15T09:33:02;40.97;;;25.17;;
5995;SDS011;3026;53.612;7.278;2023-02-15T09:35:29;40.30;;;25.03;;
5995;SDS011;3026;53.612;7.278;2023-02-15T09:37:56;38.60;;;25.97;;
5995;SDS011;3026;53.612;7.278;2023-02-15T09:40:24;35.80;;;23.10;;
5995;SDS011;3026;53.612;7.278;2023-02-15T09:43:09;36.60;;;23.87;;
5995;SDS011;3026;53.612;7.278;2023-02-15T09:45:57;37.40;;;26.20;;
5995;SDS011;3026;53.612;7.278;2023-02-15T09:48:38;36.13;;;25.67;;
5995;SDS011;3026;53.612;7.278;2023-02-15T09:51:14;39.73;;;26.10;;
5995;SDS011;3026;53.612;7.278;2023-02-15T09:54:03;36.83;;;23.33;;
5995;SDS011;3026;53.612;7.278;2023-02-15T09:56:41;32.00;;;22.10;;
5995;SDS011;3026;53.612;7.278;2023-02-15T09:59:16;34.23;;;24.47;;
5995;SDS011;3026;53.612;7.278;2023-02-15T10:01:50;36.20;;;23.90;;
5995;SDS011;3026;53.612;7.278;2023-02-15T10:04:33;28.87;;;21.57;;
5995;SDS011;3026;53.612;7.278;2023-02-15T10:07:18;32.40;;;22.97;;
5995;SDS011;3026;53.612;7.278;2023-02-15T10:09:58;33.77;;;22.97;;
5995;SDS011;3026;53.612;7.278;2023-02-15T10:12:42;31.83;;;22.47;;
5995;SDS011;3026;53.612;7.278;2023-02-15T10:15:34;38.00;;;23.83;;
5995;SDS011;3026;53.612;7.278;2023-02-15T10:18:23;34.90;;;23.77;;
5995;SDS011;3026;53.612;7.278;2023-02-15T10:21:21;33.67;;;23.53;;
5995;SDS011;3026;53.612;7.278;2023-02-15T10:24:09;34.53;;;22.37;;
5995;SDS011;3026;53.612;7.278;2023-02-15T10:26:54;30.57;;;20.70;;
5995;SDS011;3026;53.612;7.278;2023-02-15T10:29:29;33.80;;;22.20;;
5995;SDS011;3026;53.612;7.278;2023-02-15T10:32:05;31.33;;;21.03;;
5995;SDS011;3026;53.612;7.278;2023-02-15T10:34:43;32.63;;;21.33;;
5995;SDS011;3026;53.612;7.278;2023-02-15T10:37:20;35.73;;;23.00;;
5995;SDS011;3026;53.612;7.278;2023-02-15T10:40:08;35.47;;;22.60;;
5995;SDS011;3026;53.612;7.278;2023-02-15T10:42:45;30.23;;;21.60;;
5995;SDS011;3026;53.612;7.278;2023-02-15T10:45:28;31.60;;;21.63;;
5995;SDS011;3026;53.612;7.278;2023-02-15T10:48:07;31.63;;;21.17;;
5995;SDS011;3026;53.612;7.278;2023-02-15T10:50:48;33.77;;;23.80;;
5995;SDS011;3026;53.612;7.278;2023-02-15T10:53:31;35.80;;;24.63;;
5995;SDS011;3026;53.612;7.278;2023-02-15T10:56:15;38.93;;;22.70;;
5995;SDS011;3026;53.612;7.278;2023-02-15T10:58:50;34.43;;;23.53;;
5995;SDS011;3026;53.612;7.278;2023-02-15T11:01:30;32.53;;;22.40;;
5995;SDS011;3026;53.612;7.278;2023-02-15T11:04:07;35.33;;;22.57;;
5995;SDS011;3026;53.612;7.278;2023-02-15T11:06:50;38.80;;;22.27;;
5995;SDS011;3026;53.612;7.278;2023-02-15T11:09:21;38.03;;;23.70;;
5995;SDS011;3026;53.612;7.278;2023-02-15T11:11:52;34.13;;;21.80;;
5995;SDS011;3026;53.612;7.278;2023-02-15T11:14:27;35.67;;;22.30;;
5995;SDS011;3026;53.612;7.278;2023-02-15T11:17:08;33.87;;;21.73;;
5995;SDS011;3026;53.612;7.278;2023-02-15T11:19:39;33.57;;;20.17;;
5995;SDS011;3026;53.612;7.278;2023-02-15T11:22:15;32.13;;;21.63;;
5995;SDS011;3026;53.612;7.278;2023-02-15T11:24:43;34.77;;;22.27;;
5995;SDS011;3026;53.612;7.278;2023-02-15T11:27:16;36.27;;;23.40;;
5995;SDS011;3026;53.612;7.278;2023-02-15T11:29:50;34.00;;;22.20;;
5995;SDS011;3026;53.612;7.278;2023-02-15T11:32:23;35.90;;;23.57;;
5995;SDS011;3026;53.612;7.278;2023-02-15T11:34:53;32.43;;;22.17;;
5995;SDS011;3026;53.612;7.278;2023-02-15T11:37:27;32.37;;;23.10;;
5995;SDS011;3026;53.612;7.278;2023-02-15T11:39:59;36.07;;;23.37;;
5995;SDS011;3026;53.612;7.278;2023-02-15T11:42:28;34.47;;;23.77;;
5995;SDS011;3026;53.612;7.278;2023-02-15T11:44:59;32.90;;;22.50;;
5995;SDS011;3026;53.612;7.278;2023-02-15T11:47:44;33.00;;;23.40;;
5995;SDS011;3026;53.612;7.278;2023-02-15T11:50:12;36.03;;;23.30;;
5995;SDS011;3026;53.612;7.278;2023-02-15T11:52:42;37.83;;;23.53;;
5995;SDS011;3026;53.612;7.278;2023-02-15T11:55:11;39.87;;;23.37;;
5995;SDS011;3026;53.612;7.278;2023-02-15T11:57:42;35.20;;;22.47;;
5995;SDS011;3026;53.612;7.278;2023-02-15T12:00:14;34.63;;;22.07;;
5995;SDS011;3026;53.612;7.278;2023-02-15T12:02:52;33.47;;;21.97;;
5995;SDS011;3026;53.612;7.278;2023-02-15T12:05:23;36.60;;;23.30;;
5995;SDS011;3026;53.612;7.278;2023-02-15T12:07:52;35.23;;;23.50;;
5995;SDS011;3026;53.612;7.278;2023-02-15T12:10:23;31.33;;;23.20;;
5995;SDS011;3026;53.612;7.278;2023-02-15T12:13:08;32.43;;;22.17;;
5995;SDS011;3026;53.612;7.278;2023-02-15T12:15:37;36.57;;;22.97;;
5995;SDS011;3026;53.612;7.278;2023-02-15T12:18:15;31.87;;;21.77;;
5995;SDS011;3026;53.612;7.278;2023-02-15T12:20:47;33.60;;;22.03;;
5995;SDS011;3026;53.612;7.278;2023-02-15T12:23:16;30.93;;;20.97;;
5995;SDS011;3026;53.612;7.278;2023-02-15T12:25:49;31.33;;;22.37;;
5995;SDS011;3026;53.612;7.278;2023-02-15T12:28:22;31.23;;;21.13;;
5995;SDS011;3026;53.612;7.278;2023-02-15T12:30:52;32.33;;;22.37;;
5995;SDS011;3026;53.612;7.278;2023-02-15T12:33:25;32.80;;;22.43;;
5995;SDS011;3026;53.612;7.278;2023-02-15T12:35:57;32.53;;;22.60;;
5995;SDS011;3026;53.612;7.278;2023-02-15T12:38:28;32.67;;;21.20;;
5995;SDS011;3026;53.612;7.278;2023-02-15T12:40:59;33.77;;;22.57;;
5995;SDS011;3026;53.612;7.278;2023-02-15T12:43:30;30.53;;;21.03;;
5995;SDS011;3026;53.612;7.278;2023-02-15T12:51:48;33.03;;;22.40;;
5995;SDS011;3026;53.612;7.278;2023-02-15T12:54:20;33.30;;;22.63;;
5995;SDS011;3026;53.612;7.278;2023-02-15T12:59:52;35.87;;;22.90;;
5995;SDS011;3026;53.612;7.278;2023-02-15T13:02:25;33.10;;;20.87;;
5995;SDS011;3026;53.612;7.278;2023-02-15T13:04:56;32.57;;;22.60;;
5995;SDS011;3026;53.612;7.278;2023-02-15T13:07:31;37.73;;;21.77;;
5995;SDS011;3026;53.612;7.278;2023-02-15T13:09:59;37.57;;;22.77;;
5995;SDS011;3026;53.612;7.278;2023-02-15T13:12:27;35.87;;;23.37;;
5995;SDS011;3026;53.612;7.278;2023-02-15T13:14:57;35.17;;;22.37;;
5995;SDS011;3026;53.612;7.278;2023-02-15T13:17:27;38.23;;;22.17;;
5995;SDS011;3026;53.612;7.278;2023-02-15T13:20:00;36.70;;;22.70;;
5995;SDS011;3026;53.612;7.278;2023-02-15T13:22:35;32.03;;;20.17;;
5995;SDS011;3026;53.612;7.278;2023-02-15T13:25:10;37.10;;;22.57;;
5995;SDS011;3026;53.612;7.278;2023-02-15T13:27:41;35.67;;;22.90;;
5995;SDS011;3026;53.612;7.278;2023-02-15T13:30:17;35.00;;;22.43;;
5995;SDS011;3026;53.612;7.278;2023-02-15T13:32:51;35.23;;;22.10;;
5995;SDS011;3026;53.612;7.278;2023-02-15T13:35:21;33.10;;;21.77;;
5995;SDS011;3026;53.612;7.278;2023-02-15T13:38:02;38.20;;;22.73;;
5995;SDS011;3026;53.612;7.278;2023-02-15T13:40:37;32.90;;;21.67;;
5995;SDS011;3026;53.612;7.278;2023-02-15T13:43:17;33.93;;;22.93;;
5995;SDS011;3026;53.612;7.278;2023-02-15T13:45:56;34.77;;;21.60;;
5995;SDS011;3026;53.612;7.278;2023-02-15T13:48:35;37.07;;;23.07;;
5995;SDS011;3026;53.612;7.278;2023-02-15T13:51:11;37.63;;;22.90;;
5995;SDS011;3026;53.612;7.278;2023-02-15T13:53:52;38.43;;;23.33;;
5995;SDS011;3026;53.612;7.278;2023-02-15T13:56:33;37.57;;;23.67;;
5995;SDS011;3026;53.612;7.278;2023-02-15T13:59:25;37.17;;;23.27;;
5995;SDS011;3026;53.612;7.278;2023-02-15T14:02:15;35.30;;;22.07;;
5995;SDS011;3026;53.612;7.278;2023-02-15T14:05:09;39.90;;;22.80;;
5995;SDS011;3026;53.612;7.278;2023-02-15T14:07:49;35.70;;;22.83;;
5995;SDS011;3026;53.612;7.278;2023-02-15T14:10:29;36.27;;;21.40;;
5995;SDS011;3026;53.612;7.278;2023-02-15T14:16:10;36.60;;;22.87;;
5995;SDS011;3026;53.612;7.278;2023-02-15T14:18:44;40.37;;;22.63;;
5995;SDS011;3026;53.612;7.278;2023-02-15T14:21:15;37.77;;;22.53;;
5995;SDS011;3026;53.612;7.278;2023-02-15T14:23:50;34.87;;;22.83;;
5995;SDS011;3026;53.612;7.278;2023-02-15T14:26:28;41.17;;;23.17;;
5995;SDS011;3026;53.612;7.278;2023-02-15T14:29:06;39.70;;;22.27;;
5995;SDS011;3026;53.612;7.278;2023-02-15T14:31:41;35.30;;;22.23;;
5995;SDS011;3026;53.612;7.278;2023-02-15T14:34:15;35.93;;;22.60;;
5995;SDS011;3026;53.612;7.278;2023-02-15T14:36:47;41.20;;;23.03;;
5995;SDS011;3026;53.612;7.278;2023-02-15T14:39:17;37.90;;;22.00;;
5995;SDS011;3026;53.612;7.278;2023-02-15T14:42:13;34.67;;;22.20;;
5995;SDS011;3026;53.612;7.278;2023-02-15T14:44:47;38.17;;;21.70;;
5995;SDS011;3026;53.612;7.278;2023-02-15T14:47:21;42.50;;;23.43;;
5995;SDS011;3026;53.612;7.278;2023-02-15T14:49:53;39.27;;;22.43;;
5995;SDS011;3026;53.612;7.278;2023-02-15T14:52:20;36.13;;;23.50;;
5995;SDS011;3026;53.612;7.278;2023-02-15T14:54:55;37.30;;;22.60;;
5995;SDS011;3026;53.612;7.278;2023-02-15T14:57:27;40.87;;;22.83;;
5995;SDS011;3026;53.612;7.278;2023-02-15T14:59:57;34.13;;;22.80;;
5995;SDS011;3026;53.612;7.278;2023-02-15T15:02:29;37.13;;;22.43;;
5995;SDS011;3026;53.612;7.278;2023-02-15T15:05:08;39.30;;;24.17;;
5995;SDS011;3026;53.612;7.278;2023-02-15T15:07:43;39.97;;;24.23;;
5995;SDS011;3026;53.612;7.278;2023-02-15T15:16:27;36.27;;;23.37;;
5995;SDS011;3026;53.612;7.278;2023-02-15T15:19:14;37.03;;;22.77;;
5995;SDS011;3026;53.612;7.278;2023-02-15T15:22:33;40.93;;;24.53;;
5995;SDS011;3026;53.612;7.278;2023-02-15T15:25:02;40.73;;;24.13;;
5995;SDS011;3026;53.612;7.278;2023-02-15T15:27:37;38.27;;;22.93;;
5995;SDS011;3026;53.612;7.278;2023-02-15T15:37:02;38.60;;;24.37;;
5995;SDS011;3026;53.612;7.278;2023-02-15T15:39:59;38.30;;;23.27;;
5995;SDS011;3026;53.612;7.278;2023-02-15T15:42:49;41.63;;;23.87;;
5995;SDS011;3026;53.612;7.278;2023-02-15T15:45:29;41.83;;;24.53;;
5995;SDS011;3026;53.612;7.278;2023-02-15T15:48:16;40.50;;;24.33;;
5995;SDS011;3026;53.612;7.278;2023-02-15T15:50:53;39.50;;;23.30;;
5995;SDS011;3026;53.612;7.278;2023-02-15T15:53:26;41.83;;;25.23;;